sensor_id;sensor_type;location;lat;lon;timestamp;P1;durP1;ratioP1;P2;durP2;ratioP2
22318;SDS011;11327;52.334;9.506;2022-10-31T00:01:45;15.50;;;9.35;;
22318;SDS011;11327;52.334;9.506;2022-10-31T00:05:06;17.52;;;9.53;;
22318;SDS011;11327;52.334;9.506;2022-10-31T00:08:27;15.45;;;9.20;;
22318;SDS011;11327;52.334;9.506;2022-10-31T00:11:49;16.07;;;9.95;;
22318;SDS011;11327;52.334;9.506;2022-10-31T00:15:09;15.90;;;9.80;;
22318;SDS011;11327;52.334;9.506;2022-10-31T00:18:30;18.30;;;11.60;;
22318;SDS011;11327;52.334;9.506;2022-10-31T00:21:52;21.33;;;12.45;;
22318;SDS011;11327;52.334;9.506;2022-10-31T00:25:13;20.35;;;12.33;;
22318;SDS011;11327;52.334;9.506;2022-10-31T00:28:33;21.27;;;13.58;;
22318;SDS011;11327;52.334;9.506;2022-10-31T00:31:55;23.60;;;13.15;;
22318;SDS011;11327;52.334;9.506;2022-10-31T00:35:16;21.57;;;12.63;;
22318;SDS011;11327;52.334;9.506;2022-10-31T00:38:36;21.55;;;13.80;;
22318;SDS011;11327;52.334;9.506;2022-10-31T00:41:57;25.40;;;14.58;;
22318;SDS011;11327;52.334;9.506;2022-10-31T00:45:18;22.20;;;14.65;;
22318;SDS011;11327;52.334;9.506;2022-10-31T00:48:39;24.85;;;15.98;;
22318;SDS011;11327;52.334;9.506;2022-10-31T00:52:00;27.75;;;17.48;;
22318;SDS011;11327;52.334;9.506;2022-10-31T00:55:21;28.83;;;16.57;;
22318;SDS011;11327;52.334;9.506;2022-10-31T00:58:42;28.77;;;18.27;;
22318;SDS011;11327;52.334;9.506;2022-10-31T01:02:03;29.63;;;18.52;;
22318;SDS011;11327;52.334;9.506;2022-10-31T01:05:24;31.07;;;17.10;;
22318;SDS011;11327;52.334;9.506;2022-10-31T01:08:46;35.03;;;20.10;;
22318;SDS011;11327;52.334;9.506;2022-10-31T01:12:07;36.13;;;22.22;;
22318;SDS011;11327;52.334;9.506;2022-10-31T01:15:28;36.20;;;21.12;;
22318;SDS011;11327;52.334;9.506;2022-10-31T01:18:50;33.73;;;21.10;;
22318;SDS011;11327;52.334;9.506;2022-10-31T01:22:11;35.60;;;20.70;;
22318;SDS011;11327;52.334;9.506;2022-10-31T01:25:32;32.80;;;20.62;;
22318;SDS011;11327;52.334;9.506;2022-10-31T01:28:54;36.40;;;22.27;;
22318;SDS011;11327;52.334;9.506;2022-10-31T01:32:16;37.23;;;21.10;;
22318;SDS011;11327;52.334;9.506;2022-10-31T01:35:37;44.03;;;22.85;;
22318;SDS011;11327;52.334;9.506;2022-10-31T01:38:59;35.40;;;20.60;;
22318;SDS011;11327;52.334;9.506;2022-10-31T01:42:22;35.75;;;21.60;;
22318;SDS011;11327;52.334;9.506;2022-10-31T01:45:44;37.83;;;21.82;;
22318;SDS011;11327;52.334;9.506;2022-10-31T01:49:14;32.58;;;21.45;;
22318;SDS011;11327;52.334;9.506;2022-10-31T01:52:36;35.88;;;21.55;;
22318;SDS011;11327;52.334;9.506;2022-10-31T01:56:09;34.78;;;21.25;;
22318;SDS011;11327;52.334;9.506;2022-10-31T01:59:30;37.25;;;21.68;;
22318;SDS011;11327;52.334;9.506;2022-10-31T02:02:54;33.10;;;21.80;;
22318;SDS011;11327;52.334;9.506;2022-10-31T02:06:35;38.85;;;22.30;;
22318;SDS011;11327;52.334;9.506;2022-10-31T02:09:53;37.95;;;22.20;;
22318;SDS011;11327;52.334;9.506;2022-10-31T02:13:16;37.53;;;21.45;;
22318;SDS011;11327;52.334;9.506;2022-10-31T02:16:38;36.58;;;22.67;;
22318;SDS011;11327;52.334;9.506;2022-10-31T02:31:30;40.43;;;20.62;;
22318;SDS011;11327;52.334;9.506;2022-10-31T02:34:52;32.75;;;20.30;;
22318;SDS011;11327;52.334;9.506;2022-10-31T02:42:16;40.28;;;20.75;;
22318;SDS011;11327;52.334;9.506;2022-10-31T02:45:48;32.63;;;20.37;;
22318;SDS011;11327;52.334;9.506;2022-10-31T02:52:52;30.48;;;18.73;;
22318;SDS011;11327;52.334;9.506;2022-10-31T02:56:18;31.05;;;18.55;;
22318;SDS011;11327;52.334;9.506;2022-10-31T02:59:41;35.60;;;19.15;;
22318;SDS011;11327;52.334;9.506;2022-10-31T03:17:01;28.17;;;17.23;;
22318;SDS011;11327;52.334;9.506;2022-10-31T03:20:27;30.23;;;17.62;;
22318;SDS011;11327;52.334;9.506;2022-10-31T03:23:52;26.90;;;16.37;;
22318;SDS011;11327;52.334;9.506;2022-10-31T03:27:16;26.10;;;16.90;;
22318;SDS011;11327;52.334;9.506;2022-10-31T03:30:41;33.25;;;17.67;;
22318;SDS011;11327;52.334;9.506;2022-10-31T03:34:04;29.75;;;16.95;;
22318;SDS011;11327;52.334;9.506;2022-10-31T03:37:28;32.85;;;18.70;;
22318;SDS011;11327;52.334;9.506;2022-10-31T03:40:52;33.20;;;17.92;;
22318;SDS011;11327;52.334;9.506;2022-10-31T03:44:17;33.70;;;18.55;;
22318;SDS011;11327;52.334;9.506;2022-10-31T03:47:40;28.67;;;18.02;;
22318;SDS011;11327;52.334;9.506;2022-10-31T03:54:35;27.37;;;16.82;;
22318;SDS011;11327;52.334;9.506;2022-10-31T03:58:08;28.98;;;16.35;;
22318;SDS011;11327;52.334;9.506;2022-10-31T04:01:32;28.65;;;17.35;;
22318;SDS011;11327;52.334;9.506;2022-10-31T04:04:56;26.68;;;16.37;;
22318;SDS011;11327;52.334;9.506;2022-10-31T04:08:19;30.77;;;16.60;;
22318;SDS011;11327;52.334;9.506;2022-10-31T04:11:45;29.00;;;16.80;;
22318;SDS011;11327;52.334;9.506;2022-10-31T04:15:07;29.52;;;15.78;;
22318;SDS011;11327;52.334;9.506;2022-10-31T04:18:30;26.87;;;15.65;;
22318;SDS011;11327;52.334;9.506;2022-10-31T04:21:51;26.42;;;14.70;;
22318;SDS011;11327;52.334;9.506;2022-10-31T04:25:12;23.95;;;14.80;;
22318;SDS011;11327;52.334;9.506;2022-10-31T04:28:33;26.02;;;15.28;;
22318;SDS011;11327;52.334;9.506;2022-10-31T04:31:54;30.15;;;16.60;;
22318;SDS011;11327;52.334;9.506;2022-10-31T04:35:15;28.60;;;16.15;;
22318;SDS011;11327;52.334;9.506;2022-10-31T04:38:36;26.87;;;15.08;;
22318;SDS011;11327;52.334;9.506;2022-10-31T04:41:57;24.37;;;15.53;;
22318;SDS011;11327;52.334;9.506;2022-10-31T04:45:18;20.35;;;13.50;;
22318;SDS011;11327;52.334;9.506;2022-10-31T04:48:39;20.00;;;12.82;;
22318;SDS011;11327;52.334;9.506;2022-10-31T04:52:00;21.20;;;12.65;;
22318;SDS011;11327;52.334;9.506;2022-10-31T04:55:21;22.22;;;14.20;;
22318;SDS011;11327;52.334;9.506;2022-10-31T04:58:42;22.02;;;14.25;;
22318;SDS011;11327;52.334;9.506;2022-10-31T05:02:03;22.58;;;14.93;;
22318;SDS011;11327;52.334;9.506;2022-10-31T05:05:24;23.30;;;15.15;;
22318;SDS011;11327;52.334;9.506;2022-10-31T05:08:47;23.75;;;14.13;;
22318;SDS011;11327;52.334;9.506;2022-10-31T05:12:08;20.57;;;13.90;;
22318;SDS011;11327;52.334;9.506;2022-10-31T05:15:29;21.73;;;12.60;;
22318;SDS011;11327;52.334;9.506;2022-10-31T05:18:50;22.10;;;13.05;;
22318;SDS011;11327;52.334;9.506;2022-10-31T05:22:11;21.93;;;13.48;;
22318;SDS011;11327;52.334;9.506;2022-10-31T05:25:32;21.80;;;13.83;;
22318;SDS011;11327;52.334;9.506;2022-10-31T05:28:53;23.60;;;14.10;;
22318;SDS011;11327;52.334;9.506;2022-10-31T05:32:14;21.30;;;13.62;;
22318;SDS011;11327;52.334;9.506;2022-10-31T05:35:35;20.75;;;13.90;;
22318;SDS011;11327;52.334;9.506;2022-10-31T05:38:56;22.95;;;14.00;;
22318;SDS011;11327;52.334;9.506;2022-10-31T05:42:17;20.85;;;13.38;;
22318;SDS011;11327;52.334;9.506;2022-10-31T05:45:38;21.70;;;12.58;;
22318;SDS011;11327;52.334;9.506;2022-10-31T05:48:59;20.70;;;12.40;;
22318;SDS011;11327;52.334;9.506;2022-10-31T05:52:20;18.80;;;12.30;;
22318;SDS011;11327;52.334;9.506;2022-10-31T05:55:41;23.55;;;13.70;;
22318;SDS011;11327;52.334;9.506;2022-10-31T05:59:03;21.65;;;13.62;;
22318;SDS011;11327;52.334;9.506;2022-10-31T06:02:24;23.38;;;13.30;;
22318;SDS011;11327;52.334;9.506;2022-10-31T06:05:47;23.87;;;13.83;;
22318;SDS011;11327;52.334;9.506;2022-10-31T06:09:07;18.48;;;12.13;;
22318;SDS011;11327;52.334;9.506;2022-10-31T06:12:28;18.42;;;11.40;;
22318;SDS011;11327;52.334;9.506;2022-10-31T06:15:50;19.82;;;11.73;;
22318;SDS011;11327;52.334;9.506;2022-10-31T06:19:10;18.55;;;12.20;;
22318;SDS011;11327;52.334;9.506;2022-10-31T06:22:31;18.55;;;12.60;;
22318;SDS011;11327;52.334;9.506;2022-10-31T06:25:53;22.95;;;12.07;;
22318;SDS011;11327;52.334;9.506;2022-10-31T06:29:14;18.70;;;11.60;;
22318;SDS011;11327;52.334;9.506;2022-10-31T06:32:35;17.95;;;11.83;;
22318;SDS011;11327;52.334;9.506;2022-10-31T06:35:56;17.87;;;12.58;;
22318;SDS011;11327;52.334;9.506;2022-10-31T06:39:17;22.17;;;12.33;;
22318;SDS011;11327;52.334;9.506;2022-10-31T06:42:38;19.10;;;11.85;;
22318;SDS011;11327;52.334;9.506;2022-10-31T06:46:02;20.85;;;12.18;;
22318;SDS011;11327;52.334;9.506;2022-10-31T06:49:25;16.87;;;11.03;;
22318;SDS011;11327;52.334;9.506;2022-10-31T06:52:52;17.92;;;11.05;;
22318;SDS011;11327;52.334;9.506;2022-10-31T06:56:14;17.37;;;11.20;;
22318;SDS011;11327;52.334;9.506;2022-10-31T06:59:35;21.07;;;11.68;;
22318;SDS011;11327;52.334;9.506;2022-10-31T07:03:00;19.82;;;11.95;;
22318;SDS011;11327;52.334;9.506;2022-10-31T07:09:44;18.82;;;11.57;;
22318;SDS011;11327;52.334;9.506;2022-10-31T07:13:06;24.10;;;12.10;;
22318;SDS011;11327;52.334;9.506;2022-10-31T07:16:29;17.15;;;11.22;;
22318;SDS011;11327;52.334;9.506;2022-10-31T07:19:49;20.82;;;12.05;;
22318;SDS011;11327;52.334;9.506;2022-10-31T07:23:10;19.77;;;11.12;;
22318;SDS011;11327;52.334;9.506;2022-10-31T07:26:32;20.77;;;11.48;;
22318;SDS011;11327;52.334;9.506;2022-10-31T07:29:53;20.90;;;11.35;;
22318;SDS011;11327;52.334;9.506;2022-10-31T07:33:14;20.88;;;11.97;;
22318;SDS011;11327;52.334;9.506;2022-10-31T07:36:35;18.87;;;11.40;;
22318;SDS011;11327;52.334;9.506;2022-10-31T07:39:56;19.98;;;11.88;;
22318;SDS011;11327;52.334;9.506;2022-10-31T07:43:16;23.52;;;11.70;;
22318;SDS011;11327;52.334;9.506;2022-10-31T07:46:38;17.92;;;11.20;;
22318;SDS011;11327;52.334;9.506;2022-10-31T07:49:59;13.95;;;9.35;;
22318;SDS011;11327;52.334;9.506;2022-10-31T07:53:19;16.00;;;9.40;;
22318;SDS011;11327;52.334;9.506;2022-10-31T07:56:40;12.98;;;8.75;;
22318;SDS011;11327;52.334;9.506;2022-10-31T08:00:02;13.95;;;8.43;;
22318;SDS011;11327;52.334;9.506;2022-10-31T08:03:24;15.05;;;8.93;;
22318;SDS011;11327;52.334;9.506;2022-10-31T08:06:45;16.75;;;9.08;;
22318;SDS011;11327;52.334;9.506;2022-10-31T08:10:08;14.30;;;8.78;;
22318;SDS011;11327;52.334;9.506;2022-10-31T08:13:29;16.27;;;9.60;;
22318;SDS011;11327;52.334;9.506;2022-10-31T08:16:50;17.40;;;9.05;;
22318;SDS011;11327;52.334;9.506;2022-10-31T08:20:13;15.45;;;8.60;;
22318;SDS011;11327;52.334;9.506;2022-10-31T08:23:34;13.85;;;8.33;;
22318;SDS011;11327;52.334;9.506;2022-10-31T08:26:55;13.15;;;8.25;;
22318;SDS011;11327;52.334;9.506;2022-10-31T08:30:16;15.58;;;8.78;;
22318;SDS011;11327;52.334;9.506;2022-10-31T08:33:37;14.05;;;8.40;;
22318;SDS011;11327;52.334;9.506;2022-10-31T08:36:58;12.58;;;8.40;;
22318;SDS011;11327;52.334;9.506;2022-10-31T08:40:19;17.17;;;9.90;;
22318;SDS011;11327;52.334;9.506;2022-10-31T08:43:39;18.67;;;10.95;;
22318;SDS011;11327;52.334;9.506;2022-10-31T08:47:01;16.90;;;10.18;;
22318;SDS011;11327;52.334;9.506;2022-10-31T08:50:22;13.45;;;8.85;;
22318;SDS011;11327;52.334;9.506;2022-10-31T08:53:43;23.18;;;13.65;;
22318;SDS011;11327;52.334;9.506;2022-10-31T08:57:04;23.40;;;14.90;;
22318;SDS011;11327;52.334;9.506;2022-10-31T09:00:25;24.15;;;14.38;;
22318;SDS011;11327;52.334;9.506;2022-10-31T09:03:46;24.15;;;14.43;;
22318;SDS011;11327;52.334;9.506;2022-10-31T09:07:07;24.02;;;14.05;;
22318;SDS011;11327;52.334;9.506;2022-10-31T09:10:28;28.67;;;14.75;;
22318;SDS011;11327;52.334;9.506;2022-10-31T09:13:49;25.45;;;14.05;;
22318;SDS011;11327;52.334;9.506;2022-10-31T09:17:12;23.83;;;12.55;;
22318;SDS011;11327;52.334;9.506;2022-10-31T09:20:35;19.17;;;11.95;;
22318;SDS011;11327;52.334;9.506;2022-10-31T09:23:57;23.45;;;12.70;;
22318;SDS011;11327;52.334;9.506;2022-10-31T09:27:17;22.42;;;14.40;;
22318;SDS011;11327;52.334;9.506;2022-10-31T09:30:38;23.10;;;14.10;;
22318;SDS011;11327;52.334;9.506;2022-10-31T09:33:59;21.62;;;13.03;;
22318;SDS011;11327;52.334;9.506;2022-10-31T09:37:20;23.87;;;12.78;;
22318;SDS011;11327;52.334;9.506;2022-10-31T09:48:27;24.40;;;13.40;;
22318;SDS011;11327;52.334;9.506;2022-10-31T09:52:36;22.30;;;13.48;;
22318;SDS011;11327;52.334;9.506;2022-10-31T09:55:19;20.48;;;11.78;;
22318;SDS011;11327;52.334;9.506;2022-10-31T09:58:46;22.05;;;12.78;;
22318;SDS011;11327;52.334;9.506;2022-10-31T10:09:24;17.98;;;12.28;;
22318;SDS011;11327;52.334;9.506;2022-10-31T10:26:57;24.77;;;13.10;;
22318;SDS011;11327;52.334;9.506;2022-10-31T10:30:42;20.25;;;13.25;;
22318;SDS011;11327;52.334;9.506;2022-10-31T10:37:46;22.10;;;12.20;;
22318;SDS011;11327;52.334;9.506;2022-10-31T10:41:19;21.55;;;12.33;;
22318;SDS011;11327;52.334;9.506;2022-10-31T10:44:40;21.33;;;11.43;;
22318;SDS011;11327;52.334;9.506;2022-10-31T10:48:26;18.92;;;11.95;;
22318;SDS011;11327;52.334;9.506;2022-10-31T10:51:59;17.20;;;10.20;;
22318;SDS011;11327;52.334;9.506;2022-10-31T10:58:50;19.02;;;11.50;;
22318;SDS011;11327;52.334;9.506;2022-10-31T11:02:16;24.45;;;11.12;;
22318;SDS011;11327;52.334;9.506;2022-10-31T11:05:40;20.20;;;10.58;;
22318;SDS011;11327;52.334;9.506;2022-10-31T11:09:09;19.40;;;10.28;;
22318;SDS011;11327;52.334;9.506;2022-10-31T11:12:32;21.12;;;11.70;;
22318;SDS011;11327;52.334;9.506;2022-10-31T11:19:30;18.82;;;9.95;;
22318;SDS011;11327;52.334;9.506;2022-10-31T11:23:00;18.05;;;10.58;;
22318;SDS011;11327;52.334;9.506;2022-10-31T11:26:19;14.63;;;9.98;;
22318;SDS011;11327;52.334;9.506;2022-10-31T11:29:40;19.35;;;11.18;;
22318;SDS011;11327;52.334;9.506;2022-10-31T11:33:01;18.67;;;10.75;;
22318;SDS011;11327;52.334;9.506;2022-10-31T11:36:24;16.10;;;9.75;;
22318;SDS011;11327;52.334;9.506;2022-10-31T11:39:50;24.82;;;12.13;;
22318;SDS011;11327;52.334;9.506;2022-10-31T11:43:16;18.55;;;10.32;;
22318;SDS011;11327;52.334;9.506;2022-10-31T11:50:08;22.67;;;10.75;;
22318;SDS011;11327;52.334;9.506;2022-10-31T11:53:29;16.00;;;9.85;;
22318;SDS011;11327;52.334;9.506;2022-10-31T11:56:52;19.77;;;10.70;;
22318;SDS011;11327;52.334;9.506;2022-10-31T12:07:31;20.62;;;12.37;;
22318;SDS011;11327;52.334;9.506;2022-10-31T12:22:20;19.90;;;11.95;;
22318;SDS011;11327;52.334;9.506;2022-10-31T12:33:15;22.05;;;12.95;;
22318;SDS011;11327;52.334;9.506;2022-10-31T12:44:36;18.95;;;12.07;;
22318;SDS011;11327;52.334;9.506;2022-10-31T12:58:51;16.12;;;10.20;;
22318;SDS011;11327;52.334;9.506;2022-10-31T13:02:35;20.25;;;10.90;;
22318;SDS011;11327;52.334;9.506;2022-10-31T13:06:14;19.35;;;9.70;;
22318;SDS011;11327;52.334;9.506;2022-10-31T13:09:43;14.25;;;8.58;;
22318;SDS011;11327;52.334;9.506;2022-10-31T13:13:07;17.23;;;9.40;;
22318;SDS011;11327;52.334;9.506;2022-10-31T13:16:35;21.07;;;11.05;;
22318;SDS011;11327;52.334;9.506;2022-10-31T13:20:20;18.35;;;9.40;;
22318;SDS011;11327;52.334;9.506;2022-10-31T13:23:29;16.77;;;9.23;;
22318;SDS011;11327;52.334;9.506;2022-10-31T13:26:53;17.50;;;8.58;;
22318;SDS011;11327;52.334;9.506;2022-10-31T13:30:20;15.40;;;8.53;;
22318;SDS011;11327;52.334;9.506;2022-10-31T13:33:44;13.95;;;7.20;;
22318;SDS011;11327;52.334;9.506;2022-10-31T13:37:28;13.15;;;7.22;;
22318;SDS011;11327;52.334;9.506;2022-10-31T13:40:45;12.53;;;7.40;;
22318;SDS011;11327;52.334;9.506;2022-10-31T13:47:54;16.27;;;7.62;;
22318;SDS011;11327;52.334;9.506;2022-10-31T13:51:26;11.73;;;6.70;;
22318;SDS011;11327;52.334;9.506;2022-10-31T13:54:50;13.25;;;6.83;;
22318;SDS011;11327;52.334;9.506;2022-10-31T13:58:19;10.93;;;6.10;;
22318;SDS011;11327;52.334;9.506;2022-10-31T14:01:49;13.75;;;6.00;;
22318;SDS011;11327;52.334;9.506;2022-10-31T14:05:21;14.55;;;7.47;;
22318;SDS011;11327;52.334;9.506;2022-10-31T14:08:41;15.55;;;7.83;;
22318;SDS011;11327;52.334;9.506;2022-10-31T14:12:10;16.65;;;7.37;;
22318;SDS011;11327;52.334;9.506;2022-10-31T14:19:23;15.55;;;8.10;;
22318;SDS011;11327;52.334;9.506;2022-10-31T14:22:45;15.85;;;9.08;;
22318;SDS011;11327;52.334;9.506;2022-10-31T14:26:07;15.23;;;8.95;;
22318;SDS011;11327;52.334;9.506;2022-10-31T14:29:49;15.28;;;9.30;;
22318;SDS011;11327;52.334;9.506;2022-10-31T14:33:13;13.90;;;8.38;;
22318;SDS011;11327;52.334;9.506;2022-10-31T14:44:10;14.93;;;9.60;;
22318;SDS011;11327;52.334;9.506;2022-10-31T14:51:36;21.20;;;12.65;;
22318;SDS011;11327;52.334;9.506;2022-10-31T14:55:02;24.72;;;12.58;;
22318;SDS011;11327;52.334;9.506;2022-10-31T15:01:56;22.02;;;13.55;;
22318;SDS011;11327;52.334;9.506;2022-10-31T15:05:35;20.88;;;12.23;;
22318;SDS011;11327;52.334;9.506;2022-10-31T15:08:59;20.80;;;12.13;;
22318;SDS011;11327;52.334;9.506;2022-10-31T15:12:30;20.72;;;12.53;;
22318;SDS011;11327;52.334;9.506;2022-10-31T15:15:54;24.00;;;13.38;;
22318;SDS011;11327;52.334;9.506;2022-10-31T15:19:21;24.00;;;13.80;;
22318;SDS011;11327;52.334;9.506;2022-10-31T15:22:43;27.85;;;15.55;;
22318;SDS011;11327;52.334;9.506;2022-10-31T15:26:04;25.62;;;14.63;;
22318;SDS011;11327;52.334;9.506;2022-10-31T15:29:26;25.92;;;15.48;;
22318;SDS011;11327;52.334;9.506;2022-10-31T15:32:48;23.70;;;14.00;;
22318;SDS011;11327;52.334;9.506;2022-10-31T15:36:18;31.82;;;19.10;;
22318;SDS011;11327;52.334;9.506;2022-10-31T15:39:42;31.07;;;17.35;;
22318;SDS011;11327;52.334;9.506;2022-10-31T15:43:04;32.17;;;18.75;;
22318;SDS011;11327;52.334;9.506;2022-10-31T15:46:27;36.60;;;19.67;;
22318;SDS011;11327;52.334;9.506;2022-10-31T15:49:50;31.52;;;19.27;;
22318;SDS011;11327;52.334;9.506;2022-10-31T15:56:58;36.20;;;19.82;;
22318;SDS011;11327;52.334;9.506;2022-10-31T16:00:26;37.75;;;19.70;;
22318;SDS011;11327;52.334;9.506;2022-10-31T16:04:00;37.48;;;21.97;;
22318;SDS011;11327;52.334;9.506;2022-10-31T16:07:23;37.10;;;21.10;;
22318;SDS011;11327;52.334;9.506;2022-10-31T16:10:44;35.75;;;20.23;;
22318;SDS011;11327;52.334;9.506;2022-10-31T16:14:15;31.00;;;19.90;;
22318;SDS011;11327;52.334;9.506;2022-10-31T16:17:40;33.58;;;19.98;;
22318;SDS011;11327;52.334;9.506;2022-10-31T16:21:00;36.05;;;20.82;;
22318;SDS011;11327;52.334;9.506;2022-10-31T16:24:29;36.17;;;20.82;;
22318;SDS011;11327;52.334;9.506;2022-10-31T16:27:50;36.13;;;20.25;;
22318;SDS011;11327;52.334;9.506;2022-10-31T16:31:13;36.80;;;21.50;;
22318;SDS011;11327;52.334;9.506;2022-10-31T16:34:34;34.13;;;20.12;;
22318;SDS011;11327;52.334;9.506;2022-10-31T16:37:55;33.20;;;20.72;;
22318;SDS011;11327;52.334;9.506;2022-10-31T16:41:16;32.88;;;20.35;;
22318;SDS011;11327;52.334;9.506;2022-10-31T16:44:37;34.30;;;21.52;;
22318;SDS011;11327;52.334;9.506;2022-10-31T16:48:05;35.17;;;20.68;;
22318;SDS011;11327;52.334;9.506;2022-10-31T16:51:28;40.73;;;20.75;;
22318;SDS011;11327;52.334;9.506;2022-10-31T16:54:49;33.83;;;20.40;;
22318;SDS011;11327;52.334;9.506;2022-10-31T16:58:15;36.83;;;20.92;;
22318;SDS011;11327;52.334;9.506;2022-10-31T17:01:35;39.58;;;20.82;;
22318;SDS011;11327;52.334;9.506;2022-10-31T17:04:56;33.98;;;21.55;;
22318;SDS011;11327;52.334;9.506;2022-10-31T17:08:17;36.08;;;20.57;;
22318;SDS011;11327;52.334;9.506;2022-10-31T17:11:39;36.58;;;20.60;;
22318;SDS011;11327;52.334;9.506;2022-10-31T17:15:03;31.17;;;18.92;;
22318;SDS011;11327;52.334;9.506;2022-10-31T17:18:25;34.38;;;19.45;;
22318;SDS011;11327;52.334;9.506;2022-10-31T17:21:46;33.48;;;18.85;;
22318;SDS011;11327;52.334;9.506;2022-10-31T17:25:08;29.42;;;18.02;;
22318;SDS011;11327;52.334;9.506;2022-10-31T17:28:32;30.57;;;18.75;;
22318;SDS011;11327;52.334;9.506;2022-10-31T17:31:53;34.10;;;19.00;;
22318;SDS011;11327;52.334;9.506;2022-10-31T17:35:15;30.45;;;18.25;;
22318;SDS011;11327;52.334;9.506;2022-10-31T17:38:36;31.65;;;18.85;;
22318;SDS011;11327;52.334;9.506;2022-10-31T17:41:57;29.35;;;17.50;;
22318;SDS011;11327;52.334;9.506;2022-10-31T17:45:19;31.07;;;18.85;;
22318;SDS011;11327;52.334;9.506;2022-10-31T17:48:40;27.00;;;16.20;;
22318;SDS011;11327;52.334;9.506;2022-10-31T17:52:01;31.10;;;18.48;;
22318;SDS011;11327;52.334;9.506;2022-10-31T17:55:22;29.48;;;17.60;;
22318;SDS011;11327;52.334;9.506;2022-10-31T17:58:43;30.90;;;18.92;;
22318;SDS011;11327;52.334;9.506;2022-10-31T18:02:05;37.13;;;20.02;;
22318;SDS011;11327;52.334;9.506;2022-10-31T18:05:27;33.23;;;19.50;;
22318;SDS011;11327;52.334;9.506;2022-10-31T18:08:48;35.50;;;19.75;;
22318;SDS011;11327;52.334;9.506;2022-10-31T18:12:09;32.03;;;19.27;;
22318;SDS011;11327;52.334;9.506;2022-10-31T18:15:30;34.90;;;20.52;;
22318;SDS011;11327;52.334;9.506;2022-10-31T18:18:52;35.05;;;19.50;;
22318;SDS011;11327;52.334;9.506;2022-10-31T18:22:15;36.45;;;20.25;;
22318;SDS011;11327;52.334;9.506;2022-10-31T18:25:36;33.65;;;19.57;;
22318;SDS011;11327;52.334;9.506;2022-10-31T18:28:58;43.52;;;20.97;;
22318;SDS011;11327;52.334;9.506;2022-10-31T18:32:20;31.77;;;19.67;;
22318;SDS011;11327;52.334;9.506;2022-10-31T18:35:41;35.85;;;19.95;;
22318;SDS011;11327;52.334;9.506;2022-10-31T18:39:02;35.98;;;20.88;;
22318;SDS011;11327;52.334;9.506;2022-10-31T18:42:23;32.98;;;19.32;;
22318;SDS011;11327;52.334;9.506;2022-10-31T18:45:44;42.23;;;21.23;;
22318;SDS011;11327;52.334;9.506;2022-10-31T18:49:06;35.88;;;20.77;;
22318;SDS011;11327;52.334;9.506;2022-10-31T18:52:26;36.68;;;21.10;;
22318;SDS011;11327;52.334;9.506;2022-10-31T18:55:47;44.03;;;22.40;;
22318;SDS011;11327;52.334;9.506;2022-10-31T18:59:09;37.08;;;20.65;;
22318;SDS011;11327;52.334;9.506;2022-10-31T19:02:31;39.92;;;20.35;;
22318;SDS011;11327;52.334;9.506;2022-10-31T19:05:53;36.10;;;21.05;;
22318;SDS011;11327;52.334;9.506;2022-10-31T19:09:15;41.48;;;23.15;;
22318;SDS011;11327;52.334;9.506;2022-10-31T19:12:36;39.00;;;23.07;;
22318;SDS011;11327;52.334;9.506;2022-10-31T19:16:02;41.70;;;22.60;;
22318;SDS011;11327;52.334;9.506;2022-10-31T19:19:24;40.95;;;22.37;;
22318;SDS011;11327;52.334;9.506;2022-10-31T19:22:45;42.60;;;23.38;;
22318;SDS011;11327;52.334;9.506;2022-10-31T19:26:06;45.52;;;24.30;;
22318;SDS011;11327;52.334;9.506;2022-10-31T19:29:27;48.05;;;25.72;;
22318;SDS011;11327;52.334;9.506;2022-10-31T19:32:52;48.52;;;24.85;;
22318;SDS011;11327;52.334;9.506;2022-10-31T19:36:14;50.05;;;26.12;;
22318;SDS011;11327;52.334;9.506;2022-10-31T19:39:37;51.33;;;27.20;;
22318;SDS011;11327;52.334;9.506;2022-10-31T19:42:58;59.05;;;29.00;;
22318;SDS011;11327;52.334;9.506;2022-10-31T19:46:20;58.68;;;30.50;;
22318;SDS011;11327;52.334;9.506;2022-10-31T19:49:42;58.50;;;30.30;;
22318;SDS011;11327;52.334;9.506;2022-10-31T19:53:04;65.92;;;32.80;;
22318;SDS011;11327;52.334;9.506;2022-10-31T19:56:26;61.20;;;31.62;;
22318;SDS011;11327;52.334;9.506;2022-10-31T19:59:47;63.68;;;32.83;;
22318;SDS011;11327;52.334;9.506;2022-10-31T20:03:08;66.33;;;32.93;;
22318;SDS011;11327;52.334;9.506;2022-10-31T20:06:30;62.55;;;31.45;;
22318;SDS011;11327;52.334;9.506;2022-10-31T20:09:53;65.70;;;34.40;;
22318;SDS011;11327;52.334;9.506;2022-10-31T20:13:15;72.03;;;35.20;;
22318;SDS011;11327;52.334;9.506;2022-10-31T20:16:36;67.50;;;34.85;;
22318;SDS011;11327;52.334;9.506;2022-10-31T20:19:57;66.80;;;33.60;;
22318;SDS011;11327;52.334;9.506;2022-10-31T20:23:18;71.37;;;34.45;;
22318;SDS011;11327;52.334;9.506;2022-10-31T20:26:40;69.47;;;34.40;;
22318;SDS011;11327;52.334;9.506;2022-10-31T20:30:01;67.62;;;34.18;;
22318;SDS011;11327;52.334;9.506;2022-10-31T20:33:22;63.45;;;32.53;;
22318;SDS011;11327;52.334;9.506;2022-10-31T20:36:43;72.92;;;35.43;;
22318;SDS011;11327;52.334;9.506;2022-10-31T20:40:05;70.12;;;34.33;;
22318;SDS011;11327;52.334;9.506;2022-10-31T20:43:27;67.30;;;33.55;;
22318;SDS011;11327;52.334;9.506;2022-10-31T20:46:48;71.17;;;35.58;;
22318;SDS011;11327;52.334;9.506;2022-10-31T20:50:09;70.25;;;34.00;;
22318;SDS011;11327;52.334;9.506;2022-10-31T20:53:30;63.98;;;31.70;;
22318;SDS011;11327;52.334;9.506;2022-10-31T20:56:52;71.95;;;35.17;;
22318;SDS011;11327;52.334;9.506;2022-10-31T21:00:13;67.17;;;32.48;;
22318;SDS011;11327;52.334;9.506;2022-10-31T21:03:34;68.65;;;34.70;;
22318;SDS011;11327;52.334;9.506;2022-10-31T21:06:55;68.47;;;34.03;;
22318;SDS011;11327;52.334;9.506;2022-10-31T21:10:17;65.97;;;33.85;;
22318;SDS011;11327;52.334;9.506;2022-10-31T21:13:38;72.10;;;34.60;;
22318;SDS011;11327;52.334;9.506;2022-10-31T21:17:00;71.40;;;34.27;;
22318;SDS011;11327;52.334;9.506;2022-10-31T21:20:21;66.37;;;34.08;;
22318;SDS011;11327;52.334;9.506;2022-10-31T21:23:42;70.67;;;34.53;;
22318;SDS011;11327;52.334;9.506;2022-10-31T21:27:03;67.40;;;33.25;;
22318;SDS011;11327;52.334;9.506;2022-10-31T21:30:24;67.60;;;34.25;;
22318;SDS011;11327;52.334;9.506;2022-10-31T21:33:46;70.22;;;35.70;;
22318;SDS011;11327;52.334;9.506;2022-10-31T21:37:07;64.67;;;33.53;;
22318;SDS011;11327;52.334;9.506;2022-10-31T21:40:28;71.45;;;34.78;;
22318;SDS011;11327;52.334;9.506;2022-10-31T21:43:49;62.00;;;33.10;;
22318;SDS011;11327;52.334;9.506;2022-10-31T21:47:13;62.75;;;31.60;;
22318;SDS011;11327;52.334;9.506;2022-10-31T21:50:34;63.75;;;32.48;;
22318;SDS011;11327;52.334;9.506;2022-10-31T21:53:55;65.55;;;33.30;;
22318;SDS011;11327;52.334;9.506;2022-10-31T21:57:35;65.17;;;33.50;;
22318;SDS011;11327;52.334;9.506;2022-10-31T22:01:04;64.10;;;32.70;;
22318;SDS011;11327;52.334;9.506;2022-10-31T22:04:22;64.03;;;32.50;;
22318;SDS011;11327;52.334;9.506;2022-10-31T22:07:43;66.30;;;33.53;;
22318;SDS011;11327;52.334;9.506;2022-10-31T22:11:10;62.55;;;33.28;;
22318;SDS011;11327;52.334;9.506;2022-10-31T22:14:29;69.47;;;35.52;;
22318;SDS011;11327;52.334;9.506;2022-10-31T22:17:50;64.77;;;32.95;;
22318;SDS011;11327;52.334;9.506;2022-10-31T22:21:14;70.00;;;35.45;;
22318;SDS011;11327;52.334;9.506;2022-10-31T22:24:36;67.92;;;35.20;;